sensor_id;sensor_type;location;lat;lon;timestamp;P1;durP1;ratioP1;P2;durP2;ratioP2
41512;SDS011;27244;59.940;30.280;2023-04-07T00:00:33;2.55;;;1.25;;
41512;SDS011;27244;59.940;30.280;2023-04-07T00:03:00;2.92;;;1.73;;
41512;SDS011;27244;59.940;30.280;2023-04-07T00:05:31;3.22;;;1.48;;
41512;SDS011;27244;59.940;30.280;2023-04-07T00:07:58;2.33;;;1.48;;
41512;SDS011;27244;59.940;30.280;2023-04-07T00:10:26;4.50;;;1.65;;
41512;SDS011;27244;59.940;30.280;2023-04-07T00:12:53;2.72;;;1.60;;
41512;SDS011;27244;59.940;30.280;2023-04-07T00:15:20;3.58;;;1.40;;
41512;SDS011;27244;59.940;30.280;2023-04-07T00:17:47;5.93;;;2.17;;
41512;SDS011;27244;59.940;30.280;2023-04-07T00:20:14;4.10;;;1.63;;
41512;SDS011;27244;59.940;30.280;2023-04-07T00:22:41;4.07;;;1.40;;
41512;SDS011;27244;59.940;30.280;2023-04-07T00:25:08;3.95;;;1.50;;
41512;SDS011;27244;59.940;30.280;2023-04-07T00:27:37;3.20;;;1.42;;
41512;SDS011;27244;59.940;30.280;2023-04-07T00:30:04;2.70;;;1.48;;
41512;SDS011;27244;59.940;30.280;2023-04-07T00:32:32;3.67;;;1.60;;
41512;SDS011;27244;59.940;30.280;2023-04-07T00:34:59;3.13;;;1.40;;
41512;SDS011;27244;59.940;30.280;2023-04-07T00:37:26;4.22;;;1.40;;
41512;SDS011;27244;59.940;30.280;2023-04-07T00:39:53;3.45;;;1.50;;
41512;SDS011;27244;59.940;30.280;2023-04-07T00:42:21;2.28;;;1.23;;
41512;SDS011;27244;59.940;30.280;2023-04-07T00:44:49;3.58;;;1.30;;
41512;SDS011;27244;59.940;30.280;2023-04-07T00:47:16;2.88;;;1.58;;
41512;SDS011;27244;59.940;30.280;2023-04-07T00:49:43;3.38;;;1.50;;
41512;SDS011;27244;59.940;30.280;2023-04-07T00:52:10;3.63;;;1.33;;
41512;SDS011;27244;59.940;30.280;2023-04-07T00:54:38;2.03;;;1.20;;
41512;SDS011;27244;59.940;30.280;2023-04-07T00:57:07;3.17;;;1.35;;
41512;SDS011;27244;59.940;30.280;2023-04-07T00:59:34;2.60;;;1.40;;
41512;SDS011;27244;59.940;30.280;2023-04-07T01:02:04;5.22;;;1.30;;
41512;SDS011;27244;59.940;30.280;2023-04-07T01:04:38;2.63;;;1.40;;
41512;SDS011;27244;59.940;30.280;2023-04-07T01:07:10;2.67;;;1.40;;
41512;SDS011;27244;59.940;30.280;2023-04-07T01:09:52;4.25;;;1.63;;
41512;SDS011;27244;59.940;30.280;2023-04-07T01:12:23;3.55;;;1.27;;
41512;SDS011;27244;59.940;30.280;2023-04-07T01:15:03;2.63;;;1.20;;
41512;SDS011;27244;59.940;30.280;2023-04-07T01:17:42;2.92;;;1.10;;
41512;SDS011;27244;59.940;30.280;2023-04-07T01:20:15;3.17;;;1.60;;
41512;SDS011;27244;59.940;30.280;2023-04-07T01:22:49;1.95;;;1.20;;
41512;SDS011;27244;59.940;30.280;2023-04-07T01:25:34;2.97;;;1.25;;
41512;SDS011;27244;59.940;30.280;2023-04-07T01:28:27;3.88;;;1.58;;
41512;SDS011;27244;59.940;30.280;2023-04-07T01:31:16;4.28;;;1.42;;
41512;SDS011;27244;59.940;30.280;2023-04-07T01:33:44;2.88;;;1.45;;
41512;SDS011;27244;59.940;30.280;2023-04-07T01:36:12;3.47;;;1.23;;
41512;SDS011;27244;59.940;30.280;2023-04-07T01:38:42;2.45;;;1.20;;
41512;SDS011;27244;59.940;30.280;2023-04-07T01:41:10;4.00;;;1.38;;
41512;SDS011;27244;59.940;30.280;2023-04-07T01:43:40;2.25;;;1.15;;
41512;SDS011;27244;59.940;30.280;2023-04-07T01:46:08;1.92;;;1.25;;
41512;SDS011;27244;59.940;30.280;2023-04-07T01:48:36;3.00;;;1.33;;
41512;SDS011;27244;59.940;30.280;2023-04-07T01:51:05;4.53;;;1.35;;
41512;SDS011;27244;59.940;30.280;2023-04-07T01:53:36;5.78;;;1.63;;
41512;SDS011;27244;59.940;30.280;2023-04-07T01:56:04;3.42;;;1.23;;
41512;SDS011;27244;59.940;30.280;2023-04-07T01:58:34;8.05;;;1.45;;
41512;SDS011;27244;59.940;30.280;2023-04-07T02:01:03;3.38;;;1.30;;
41512;SDS011;27244;59.940;30.280;2023-04-07T02:03:33;2.10;;;1.20;;
41512;SDS011;27244;59.940;30.280;2023-04-07T02:06:06;3.78;;;1.85;;
41512;SDS011;27244;59.940;30.280;2023-04-07T02:08:35;2.70;;;1.67;;
41512;SDS011;27244;59.940;30.280;2023-04-07T02:11:07;1.75;;;1.25;;
41512;SDS011;27244;59.940;30.280;2023-04-07T02:13:37;3.15;;;1.30;;
41512;SDS011;27244;59.940;30.280;2023-04-07T02:16:09;2.65;;;1.50;;
41512;SDS011;27244;59.940;30.280;2023-04-07T02:18:37;2.15;;;1.40;;
41512;SDS011;27244;59.940;30.280;2023-04-07T02:21:06;2.20;;;1.25;;
41512;SDS011;27244;59.940;30.280;2023-04-07T02:23:35;2.75;;;1.50;;
41512;SDS011;27244;59.940;30.280;2023-04-07T02:26:02;1.30;;;1.20;;
41512;SDS011;27244;59.940;30.280;2023-04-07T02:28:29;3.00;;;1.35;;
41512;SDS011;27244;59.940;30.280;2023-04-07T02:30:56;2.10;;;1.35;;
41512;SDS011;27244;59.940;30.280;2023-04-07T02:33:23;2.38;;;1.17;;
41512;SDS011;27244;59.940;30.280;2023-04-07T02:35:52;3.15;;;2.10;;
41512;SDS011;27244;59.940;30.280;2023-04-07T02:38:19;2.45;;;1.33;;
41512;SDS011;27244;59.940;30.280;2023-04-07T02:40:46;2.65;;;1.63;;
41512;SDS011;27244;59.940;30.280;2023-04-07T02:43:14;1.95;;;1.38;;
41512;SDS011;27244;59.940;30.280;2023-04-07T02:45:41;2.85;;;1.40;;
41512;SDS011;27244;59.940;30.280;2023-04-07T02:48:08;2.53;;;1.38;;
41512;SDS011;27244;59.940;30.280;2023-04-07T02:50:35;3.45;;;1.40;;
41512;SDS011;27244;59.940;30.280;2023-04-07T02:53:04;2.70;;;1.40;;
41512;SDS011;27244;59.940;30.280;2023-04-07T02:55:31;3.58;;;1.65;;
41512;SDS011;27244;59.940;30.280;2023-04-07T02:57:58;2.92;;;1.40;;
41512;SDS011;27244;59.940;30.280;2023-04-07T03:00:34;2.30;;;1.17;;
41512;SDS011;27244;59.940;30.280;2023-04-07T03:03:15;3.15;;;1.30;;
41512;SDS011;27244;59.940;30.280;2023-04-07T03:05:53;2.75;;;1.20;;
41512;SDS011;27244;59.940;30.280;2023-04-07T03:08:21;2.55;;;1.30;;
41512;SDS011;27244;59.940;30.280;2023-04-07T03:10:48;3.22;;;1.40;;
41512;SDS011;27244;59.940;30.280;2023-04-07T03:13:20;2.83;;;1.33;;
41512;SDS011;27244;59.940;30.280;2023-04-07T03:15:47;3.75;;;1.30;;
41512;SDS011;27244;59.940;30.280;2023-04-07T03:18:16;2.85;;;1.25;;
41512;SDS011;27244;59.940;30.280;2023-04-07T03:20:44;4.82;;;1.20;;
41512;SDS011;27244;59.940;30.280;2023-04-07T03:23:14;5.13;;;1.27;;
41512;SDS011;27244;59.940;30.280;2023-04-07T03:25:43;3.63;;;1.40;;
41512;SDS011;27244;59.940;30.280;2023-04-07T03:28:11;4.65;;;1.55;;
41512;SDS011;27244;59.940;30.280;2023-04-07T03:30:39;3.88;;;1.40;;
41512;SDS011;27244;59.940;30.280;2023-04-07T03:33:05;3.42;;;1.60;;
41512;SDS011;27244;59.940;30.280;2023-04-07T03:35:35;3.00;;;1.58;;
41512;SDS011;27244;59.940;30.280;2023-04-07T03:38:02;3.08;;;1.40;;
41512;SDS011;27244;59.940;30.280;2023-04-07T03:40:29;4.65;;;1.50;;
41512;SDS011;27244;59.940;30.280;2023-04-07T03:42:59;2.78;;;1.40;;
41512;SDS011;27244;59.940;30.280;2023-04-07T03:45:28;4.93;;;1.75;;
41512;SDS011;27244;59.940;30.280;2023-04-07T03:48:13;4.28;;;1.23;;
41512;SDS011;27244;59.940;30.280;2023-04-07T03:50:52;2.20;;;1.40;;
41512;SDS011;27244;59.940;30.280;2023-04-07T03:53:19;5.65;;;1.88;;
41512;SDS011;27244;59.940;30.280;2023-04-07T03:55:46;2.78;;;1.20;;
41512;SDS011;27244;59.940;30.280;2023-04-07T03:58:24;6.43;;;1.25;;
41512;SDS011;27244;59.940;30.280;2023-04-07T04:00:55;4.25;;;1.92;;
41512;SDS011;27244;59.940;30.280;2023-04-07T04:03:22;2.92;;;1.40;;
41512;SDS011;27244;59.940;30.280;2023-04-07T04:06:04;3.00;;;1.52;;
41512;SDS011;27244;59.940;30.280;2023-04-07T04:08:31;4.70;;;1.52;;
41512;SDS011;27244;59.940;30.280;2023-04-07T04:10:59;5.70;;;1.55;;
41512;SDS011;27244;59.940;30.280;2023-04-07T04:13:34;3.22;;;1.52;;
41512;SDS011;27244;59.940;30.280;2023-04-07T04:16:03;3.33;;;1.43;;
41512;SDS011;27244;59.940;30.280;2023-04-07T04:18:32;4.35;;;1.30;;
41512;SDS011;27244;59.940;30.280;2023-04-07T04:21:00;6.72;;;1.38;;
41512;SDS011;27244;59.940;30.280;2023-04-07T04:23:27;5.35;;;1.20;;
41512;SDS011;27244;59.940;30.280;2023-04-07T04:25:56;2.35;;;0.98;;
41512;SDS011;27244;59.940;30.280;2023-04-07T04:28:25;5.15;;;1.25;;
41512;SDS011;27244;59.940;30.280;2023-04-07T04:30:54;4.03;;;1.40;;
41512;SDS011;27244;59.940;30.280;2023-04-07T04:33:21;3.30;;;1.00;;
41512;SDS011;27244;59.940;30.280;2023-04-07T04:35:53;4.55;;;1.25;;
41512;SDS011;27244;59.940;30.280;2023-04-07T04:38:21;4.03;;;1.23;;
41512;SDS011;27244;59.940;30.280;2023-04-07T04:40:53;2.20;;;1.20;;
41512;SDS011;27244;59.940;30.280;2023-04-07T04:43:25;2.25;;;1.20;;
41512;SDS011;27244;59.940;30.280;2023-04-07T04:45:54;2.75;;;1.02;;
41512;SDS011;27244;59.940;30.280;2023-04-07T04:48:25;2.00;;;1.30;;
41512;SDS011;27244;59.940;30.280;2023-04-07T04:50:56;4.43;;;1.20;;
41512;SDS011;27244;59.940;30.280;2023-04-07T04:53:22;3.75;;;1.08;;
41512;SDS011;27244;59.940;30.280;2023-04-07T04:55:55;4.78;;;1.50;;
41512;SDS011;27244;59.940;30.280;2023-04-07T04:58:43;2.08;;;1.15;;
41512;SDS011;27244;59.940;30.280;2023-04-07T05:01:18;1.85;;;0.80;;
41512;SDS011;27244;59.940;30.280;2023-04-07T05:03:51;1.38;;;0.80;;
41512;SDS011;27244;59.940;30.280;2023-04-07T05:06:25;1.50;;;0.93;;
41512;SDS011;27244;59.940;30.280;2023-04-07T05:08:55;2.63;;;0.90;;
41512;SDS011;27244;59.940;30.280;2023-04-07T05:11:26;1.50;;;0.90;;
41512;SDS011;27244;59.940;30.280;2023-04-07T05:13:54;2.38;;;1.13;;
41512;SDS011;27244;59.940;30.280;2023-04-07T05:16:24;1.42;;;0.90;;
41512;SDS011;27244;59.940;30.280;2023-04-07T05:18:51;1.17;;;0.90;;
41512;SDS011;27244;59.940;30.280;2023-04-07T05:21:19;1.60;;;0.80;;
41512;SDS011;27244;59.940;30.280;2023-04-07T05:23:47;1.38;;;0.80;;
41512;SDS011;27244;59.940;30.280;2023-04-07T05:26:14;1.52;;;1.00;;
41512;SDS011;27244;59.940;30.280;2023-04-07T05:28:42;1.05;;;0.80;;
41512;SDS011;27244;59.940;30.280;2023-04-07T05:31:15;1.70;;;0.90;;
41512;SDS011;27244;59.940;30.280;2023-04-07T05:33:43;3.60;;;1.20;;
41512;SDS011;27244;59.940;30.280;2023-04-07T05:36:10;2.28;;;0.98;;
41512;SDS011;27244;59.940;30.280;2023-04-07T05:38:40;2.42;;;0.90;;
41512;SDS011;27244;59.940;30.280;2023-04-07T05:41:11;1.98;;;0.77;;
41512;SDS011;27244;59.940;30.280;2023-04-07T05:43:38;1.30;;;1.00;;
41512;SDS011;27244;59.940;30.280;2023-04-07T05:46:05;1.55;;;0.70;;
41512;SDS011;27244;59.940;30.280;2023-04-07T05:48:38;1.50;;;1.10;;
41512;SDS011;27244;59.940;30.280;2023-04-07T05:51:07;1.30;;;0.70;;
41512;SDS011;27244;59.940;30.280;2023-04-07T05:53:36;2.00;;;1.00;;
41512;SDS011;27244;59.940;30.280;2023-04-07T05:56:09;2.53;;;0.75;;
41512;SDS011;27244;59.940;30.280;2023-04-07T05:58:43;3.97;;;0.88;;
41512;SDS011;27244;59.940;30.280;2023-04-07T06:01:11;1.75;;;1.15;;
41512;SDS011;27244;59.940;30.280;2023-04-07T06:03:41;3.55;;;1.20;;
41512;SDS011;27244;59.940;30.280;2023-04-07T06:06:14;1.95;;;1.20;;
41512;SDS011;27244;59.940;30.280;2023-04-07T06:08:43;2.20;;;1.50;;
41512;SDS011;27244;59.940;30.280;2023-04-07T06:11:10;1.65;;;1.35;;
41512;SDS011;27244;59.940;30.280;2023-04-07T06:13:37;2.78;;;1.40;;
41512;SDS011;27244;59.940;30.280;2023-04-07T06:16:04;2.00;;;1.50;;
41512;SDS011;27244;59.940;30.280;2023-04-07T06:18:31;2.88;;;1.50;;
41512;SDS011;27244;59.940;30.280;2023-04-07T06:20:58;1.98;;;1.60;;
41512;SDS011;27244;59.940;30.280;2023-04-07T06:23:27;2.72;;;1.70;;
41512;SDS011;27244;59.940;30.280;2023-04-07T06:25:54;2.15;;;1.77;;
41512;SDS011;27244;59.940;30.280;2023-04-07T06:28:21;2.90;;;1.80;;
41512;SDS011;27244;59.940;30.280;2023-04-07T06:30:48;2.35;;;2.10;;
41512;SDS011;27244;59.940;30.280;2023-04-07T06:33:15;2.78;;;2.20;;
41512;SDS011;27244;59.940;30.280;2023-04-07T06:35:43;3.08;;;2.47;;
41512;SDS011;27244;59.940;30.280;2023-04-07T06:38:11;2.40;;;1.83;;
41512;SDS011;27244;59.940;30.280;2023-04-07T06:40:39;2.45;;;2.13;;
41512;SDS011;27244;59.940;30.280;2023-04-07T06:43:06;2.95;;;2.10;;
41512;SDS011;27244;59.940;30.280;2023-04-07T06:45:47;2.92;;;2.00;;
41512;SDS011;27244;59.940;30.280;2023-04-07T06:48:14;3.22;;;2.25;;
41512;SDS011;27244;59.940;30.280;2023-04-07T06:50:44;2.50;;;1.92;;
41512;SDS011;27244;59.940;30.280;2023-04-07T06:53:11;2.53;;;2.13;;
41512;SDS011;27244;59.940;30.280;2023-04-07T06:55:40;2.80;;;1.92;;
41512;SDS011;27244;59.940;30.280;2023-04-07T06:58:07;3.42;;;2.50;;
41512;SDS011;27244;59.940;30.280;2023-04-07T07:00:34;5.07;;;2.38;;
41512;SDS011;27244;59.940;30.280;2023-04-07T07:03:01;4.47;;;2.13;;
41512;SDS011;27244;59.940;30.280;2023-04-07T07:05:28;3.15;;;2.10;;
41512;SDS011;27244;59.940;30.280;2023-04-07T07:07:55;3.53;;;2.22;;
41512;SDS011;27244;59.940;30.280;2023-04-07T07:10:22;6.05;;;2.40;;
41512;SDS011;27244;59.940;30.280;2023-04-07T07:12:51;3.75;;;2.15;;
41512;SDS011;27244;59.940;30.280;2023-04-07T07:15:17;5.07;;;2.20;;
41512;SDS011;27244;59.940;30.280;2023-04-07T07:17:44;4.13;;;2.00;;
41512;SDS011;27244;59.940;30.280;2023-04-07T07:20:12;3.75;;;2.20;;
41512;SDS011;27244;59.940;30.280;2023-04-07T07:22:39;3.03;;;2.10;;
41512;SDS011;27244;59.940;30.280;2023-04-07T07:25:06;6.75;;;2.45;;
41512;SDS011;27244;59.940;30.280;2023-04-07T07:27:33;3.65;;;2.53;;
41512;SDS011;27244;59.940;30.280;2023-04-07T07:30:02;4.00;;;2.35;;
41512;SDS011;27244;59.940;30.280;2023-04-07T07:32:29;4.03;;;2.17;;
41512;SDS011;27244;59.940;30.280;2023-04-07T07:34:57;3.67;;;2.55;;
41512;SDS011;27244;59.940;30.280;2023-04-07T07:37:24;5.35;;;2.33;;
41512;SDS011;27244;59.940;30.280;2023-04-07T07:39:52;3.78;;;2.03;;
41512;SDS011;27244;59.940;30.280;2023-04-07T07:42:20;3.90;;;2.22;;
41512;SDS011;27244;59.940;30.280;2023-04-07T07:44:47;5.45;;;2.47;;
41512;SDS011;27244;59.940;30.280;2023-04-07T07:47:16;8.38;;;2.97;;
41512;SDS011;27244;59.940;30.280;2023-04-07T07:49:43;3.55;;;2.35;;
41512;SDS011;27244;59.940;30.280;2023-04-07T07:52:10;2.58;;;2.20;;
41512;SDS011;27244;59.940;30.280;2023-04-07T07:54:37;5.22;;;2.55;;
41512;SDS011;27244;59.940;30.280;2023-04-07T07:57:04;3.83;;;2.25;;
41512;SDS011;27244;59.940;30.280;2023-04-07T07:59:31;6.75;;;2.42;;
41512;SDS011;27244;59.940;30.280;2023-04-07T08:01:59;5.32;;;2.03;;
41512;SDS011;27244;59.940;30.280;2023-04-07T08:04:27;4.88;;;2.25;;
41512;SDS011;27244;59.940;30.280;2023-04-07T08:06:54;4.10;;;2.13;;
41512;SDS011;27244;59.940;30.280;2023-04-07T08:09:21;4.15;;;2.00;;
41512;SDS011;27244;59.940;30.280;2023-04-07T08:11:48;4.95;;;2.10;;
41512;SDS011;27244;59.940;30.280;2023-04-07T08:14:15;2.40;;;1.95;;
41512;SDS011;27244;59.940;30.280;2023-04-07T08:16:42;4.38;;;2.50;;
41512;SDS011;27244;59.940;30.280;2023-04-07T08:19:10;4.30;;;2.03;;
41512;SDS011;27244;59.940;30.280;2023-04-07T08:21:39;4.93;;;2.10;;
41512;SDS011;27244;59.940;30.280;2023-04-07T08:24:08;5.20;;;2.20;;
41512;SDS011;27244;59.940;30.280;2023-04-07T08:26:36;3.17;;;1.98;;
41512;SDS011;27244;59.940;30.280;2023-04-07T08:29:03;2.78;;;1.98;;
41512;SDS011;27244;59.940;30.280;2023-04-07T08:31:30;5.43;;;2.40;;
41512;SDS011;27244;59.940;30.280;2023-04-07T08:33:57;3.80;;;1.98;;
41512;SDS011;27244;59.940;30.280;2023-04-07T08:36:24;3.28;;;1.80;;
41512;SDS011;27244;59.940;30.280;2023-04-07T08:38:53;5.45;;;1.80;;
41512;SDS011;27244;59.940;30.280;2023-04-07T08:41:23;4.32;;;1.98;;
41512;SDS011;27244;59.940;30.280;2023-04-07T08:43:54;3.95;;;2.50;;
41512;SDS011;27244;59.940;30.280;2023-04-07T08:46:23;2.85;;;1.80;;
41512;SDS011;27244;59.940;30.280;2023-04-07T08:48:55;2.63;;;1.80;;
41512;SDS011;27244;59.940;30.280;2023-04-07T08:51:25;10.98;;;3.03;;
41512;SDS011;27244;59.940;30.280;2023-04-07T08:53:57;4.38;;;2.17;;
41512;SDS011;27244;59.940;30.280;2023-04-07T08:56:30;4.80;;;1.77;;
41512;SDS011;27244;59.940;30.280;2023-04-07T08:59:01;4.90;;;1.73;;
41512;SDS011;27244;59.940;30.280;2023-04-07T09:01:28;8.32;;;2.28;;
41512;SDS011;27244;59.940;30.280;2023-04-07T09:03:56;3.38;;;1.50;;
41512;SDS011;27244;59.940;30.280;2023-04-07T09:06:23;3.10;;;1.83;;
41512;SDS011;27244;59.940;30.280;2023-04-07T09:08:51;4.13;;;1.80;;
41512;SDS011;27244;59.940;30.280;2023-04-07T09:11:19;5.75;;;2.00;;
41512;SDS011;27244;59.940;30.280;2023-04-07T09:13:48;3.65;;;1.88;;
41512;SDS011;27244;59.940;30.280;2023-04-07T09:16:15;5.03;;;1.92;;
41512;SDS011;27244;59.940;30.280;2023-04-07T09:18:43;6.68;;;1.80;;
41512;SDS011;27244;59.940;30.280;2023-04-07T09:21:10;7.38;;;3.08;;
41512;SDS011;27244;59.940;30.280;2023-04-07T09:23:37;3.63;;;1.85;;
41512;SDS011;27244;59.940;30.280;2023-04-07T09:26:20;3.03;;;1.55;;
41512;SDS011;27244;59.940;30.280;2023-04-07T09:28:50;2.70;;;1.52;;
41512;SDS011;27244;59.940;30.280;2023-04-07T09:31:19;6.25;;;1.80;;
41512;SDS011;27244;59.940;30.280;2023-04-07T09:33:47;2.97;;;1.88;;
41512;SDS011;27244;59.940;30.280;2023-04-07T09:36:14;3.70;;;1.42;;
41512;SDS011;27244;59.940;30.280;2023-04-07T09:38:42;4.55;;;1.95;;
41512;SDS011;27244;59.940;30.280;2023-04-07T09:41:11;3.45;;;1.67;;
41512;SDS011;27244;59.940;30.280;2023-04-07T09:43:42;4.20;;;1.67;;
41512;SDS011;27244;59.940;30.280;2023-04-07T09:46:10;4.43;;;1.70;;
41512;SDS011;27244;59.940;30.280;2023-04-07T09:48:39;4.10;;;1.60;;
41512;SDS011;27244;59.940;30.280;2023-04-07T09:51:09;2.90;;;1.80;;
41512;SDS011;27244;59.940;30.280;2023-04-07T09:53:41;2.97;;;1.60;;
41512;SDS011;27244;59.940;30.280;2023-04-07T09:56:10;12.65;;;2.83;;
41512;SDS011;27244;59.940;30.280;2023-04-07T09:58:38;3.03;;;1.60;;
41512;SDS011;27244;59.940;30.280;2023-04-07T10:01:07;5.00;;;1.70;;
41512;SDS011;27244;59.940;30.280;2023-04-07T10:03:35;4.43;;;1.45;;
41512;SDS011;27244;59.940;30.280;2023-04-07T10:06:03;5.00;;;2.28;;
41512;SDS011;27244;59.940;30.280;2023-04-07T10:08:32;5.90;;;2.05;;
41512;SDS011;27244;59.940;30.280;2023-04-07T10:11:00;3.85;;;1.75;;
41512;SDS011;27244;59.940;30.280;2023-04-07T10:13:28;6.05;;;2.17;;
41512;SDS011;27244;59.940;30.280;2023-04-07T10:15:55;3.10;;;1.65;;
41512;SDS011;27244;59.940;30.280;2023-04-07T10:18:27;6.15;;;1.85;;
41512;SDS011;27244;59.940;30.280;2023-04-07T10:20:56;4.20;;;2.05;;
41512;SDS011;27244;59.940;30.280;2023-04-07T10:23:25;4.75;;;2.05;;
41512;SDS011;27244;59.940;30.280;2023-04-07T10:26:00;3.80;;;1.50;;
41512;SDS011;27244;59.940;30.280;2023-04-07T10:28:29;5.53;;;1.88;;
41512;SDS011;27244;59.940;30.280;2023-04-07T10:30:58;4.15;;;1.65;;
41512;SDS011;27244;59.940;30.280;2023-04-07T10:36:18;3.35;;;1.75;;
41512;SDS011;27244;59.940;30.280;2023-04-07T10:41:46;3.22;;;1.77;;
41512;SDS011;27244;59.940;30.280;2023-04-07T10:47:14;2.88;;;1.60;;
41512;SDS011;27244;59.940;30.280;2023-04-07T10:52:44;3.05;;;1.60;;
41512;SDS011;27244;59.940;30.280;2023-04-07T10:55:31;3.03;;;1.40;;
41512;SDS011;27244;59.940;30.280;2023-04-07T10:58:12;3.50;;;1.60;;
41512;SDS011;27244;59.940;30.280;2023-04-07T11:00:40;3.83;;;1.50;;
41512;SDS011;27244;59.940;30.280;2023-04-07T11:03:09;3.28;;;1.55;;
41512;SDS011;27244;59.940;30.280;2023-04-07T11:05:39;3.88;;;1.40;;
41512;SDS011;27244;59.940;30.280;2023-04-07T11:08:06;2.92;;;1.20;;
41512;SDS011;27244;59.940;30.280;2023-04-07T11:10:34;2.63;;;1.38;;
41512;SDS011;27244;59.940;30.280;2023-04-07T11:13:05;3.97;;;1.42;;
41512;SDS011;27244;59.940;30.280;2023-04-07T11:18:07;2.55;;;1.35;;
41512;SDS011;27244;59.940;30.280;2023-04-07T11:20:41;2.20;;;1.40;;
41512;SDS011;27244;59.940;30.280;2023-04-07T11:23:10;4.07;;;1.90;;
41512;SDS011;27244;59.940;30.280;2023-04-07T11:25:37;3.08;;;1.30;;
41512;SDS011;27244;59.940;30.280;2023-04-07T11:28:05;2.45;;;1.20;;
41512;SDS011;27244;59.940;30.280;2023-04-07T11:30:35;3.53;;;1.35;;
41512;SDS011;27244;59.940;30.280;2023-04-07T11:33:02;2.10;;;1.10;;
41512;SDS011;27244;59.940;30.280;2023-04-07T11:35:29;2.70;;;1.67;;
41512;SDS011;27244;59.940;30.280;2023-04-07T11:37:58;3.70;;;1.40;;
41512;SDS011;27244;59.940;30.280;2023-04-07T11:40:32;4.47;;;1.40;;
41512;SDS011;27244;59.940;30.280;2023-04-07T11:43:01;2.97;;;1.45;;
41512;SDS011;27244;59.940;30.280;2023-04-07T11:45:28;2.47;;;1.27;;
41512;SDS011;27244;59.940;30.280;2023-04-07T11:47:55;4.72;;;1.50;;
41512;SDS011;27244;59.940;30.280;2023-04-07T11:50:38;2.60;;;1.30;;
41512;SDS011;27244;59.940;30.280;2023-04-07T11:53:07;2.50;;;1.15;;
41512;SDS011;27244;59.940;30.280;2023-04-07T11:55:34;2.05;;;1.20;;
41512;SDS011;27244;59.940;30.280;2023-04-07T11:58:05;2.92;;;1.42;;
41512;SDS011;27244;59.940;30.280;2023-04-07T12:00:34;2.38;;;1.33;;
41512;SDS011;27244;59.940;30.280;2023-04-07T12:03:08;3.47;;;1.45;;
41512;SDS011;27244;59.940;30.280;2023-04-07T12:05:41;4.05;;;1.52;;
41512;SDS011;27244;59.940;30.280;2023-04-07T12:08:11;3.35;;;1.20;;
41512;SDS011;27244;59.940;30.280;2023-04-07T12:10:41;4.07;;;1.40;;
41512;SDS011;27244;59.940;30.280;2023-04-07T12:13:08;4.07;;;1.40;;
41512;SDS011;27244;59.940;30.280;2023-04-07T12:15:35;7.07;;;1.40;;
41512;SDS011;27244;59.940;30.280;2023-04-07T12:18:02;3.65;;;1.20;;
41512;SDS011;27244;59.940;30.280;2023-04-07T12:20:30;2.88;;;0.90;;
41512;SDS011;27244;59.940;30.280;2023-04-07T12:22:57;2.17;;;1.20;;
41512;SDS011;27244;59.940;30.280;2023-04-07T12:25:26;3.88;;;1.50;;
41512;SDS011;27244;59.940;30.280;2023-04-07T12:27:53;3.13;;;1.35;;
41512;SDS011;27244;59.940;30.280;2023-04-07T12:30:20;3.00;;;1.10;;
41512;SDS011;27244;59.940;30.280;2023-04-07T12:32:47;4.75;;;1.60;;
41512;SDS011;27244;59.940;30.280;2023-04-07T12:35:14;2.67;;;1.48;;
41512;SDS011;27244;59.940;30.280;2023-04-07T12:37:42;4.78;;;1.73;;
41512;SDS011;27244;59.940;30.280;2023-04-07T12:40:09;3.30;;;1.27;;
41512;SDS011;27244;59.940;30.280;2023-04-07T12:42:38;6.05;;;1.40;;
41512;SDS011;27244;59.940;30.280;2023-04-07T12:45:07;2.03;;;1.10;;
41512;SDS011;27244;59.940;30.280;2023-04-07T12:47:34;3.88;;;1.35;;
41512;SDS011;27244;59.940;30.280;2023-04-07T12:50:01;2.95;;;1.23;;
41512;SDS011;27244;59.940;30.280;2023-04-07T12:52:28;4.93;;;1.23;;
41512;SDS011;27244;59.940;30.280;2023-04-07T12:54:56;6.28;;;1.40;;
41512;SDS011;27244;59.940;30.280;2023-04-07T12:57:23;3.47;;;1.20;;
41512;SDS011;27244;59.940;30.280;2023-04-07T12:59:53;3.08;;;0.80;;
41512;SDS011;27244;59.940;30.280;2023-04-07T13:02:20;2.75;;;0.82;;
41512;SDS011;27244;59.940;30.280;2023-04-07T13:04:47;3.47;;;1.17;;
41512;SDS011;27244;59.940;30.280;2023-04-07T13:07:14;2.33;;;0.90;;
41512;SDS011;27244;59.940;30.280;2023-04-07T13:09:41;2.25;;;1.00;;
41512;SDS011;27244;59.940;30.280;2023-04-07T13:12:08;2.70;;;1.00;;
41512;SDS011;27244;59.940;30.280;2023-04-07T13:14:36;2.05;;;1.05;;
41512;SDS011;27244;59.940;30.280;2023-04-07T13:17:05;3.83;;;1.10;;
41512;SDS011;27244;59.940;30.280;2023-04-07T13:19:33;2.65;;;1.20;;
41512;SDS011;27244;59.940;30.280;2023-04-07T13:22:04;2.15;;;0.95;;
41512;SDS011;27244;59.940;30.280;2023-04-07T13:24:32;4.28;;;1.20;;
41512;SDS011;27244;59.940;30.280;2023-04-07T13:26:59;1.98;;;1.10;;
41512;SDS011;27244;59.940;30.280;2023-04-07T13:29:27;2.25;;;1.00;;
41512;SDS011;27244;59.940;30.280;2023-04-07T13:32:03;1.70;;;0.90;;
41512;SDS011;27244;59.940;30.280;2023-04-07T13:34:32;1.48;;;1.00;;
41512;SDS011;27244;59.940;30.280;2023-04-07T13:36:59;3.53;;;0.85;;
41512;SDS011;27244;59.940;30.280;2023-04-07T13:39:26;1.95;;;1.00;;
41512;SDS011;27244;59.940;30.280;2023-04-07T13:41:53;3.35;;;1.27;;
41512;SDS011;27244;59.940;30.280;2023-04-07T13:44:20;2.72;;;0.88;;
41512;SDS011;27244;59.940;30.280;2023-04-07T13:46:47;2.13;;;0.90;;
41512;SDS011;27244;59.940;30.280;2023-04-07T13:49:14;3.30;;;1.05;;
41512;SDS011;27244;59.940;30.280;2023-04-07T13:51:43;1.63;;;0.80;;
41512;SDS011;27244;59.940;30.280;2023-04-07T13:54:10;2.50;;;0.90;;
41512;SDS011;27244;59.940;30.280;2023-04-07T13:56:37;2.25;;;1.10;;
41512;SDS011;27244;59.940;30.280;2023-04-07T13:59:04;2.22;;;0.80;;
41512;SDS011;27244;59.940;30.280;2023-04-07T14:01:31;1.92;;;1.00;;
41512;SDS011;27244;59.940;30.280;2023-04-07T14:03:59;1.67;;;0.75;;
41512;SDS011;27244;59.940;30.280;2023-04-07T14:06:26;1.67;;;0.90;;
41512;SDS011;27244;59.940;30.280;2023-04-07T14:08:58;1.92;;;1.02;;
41512;SDS011;27244;59.940;30.280;2023-04-07T14:11:25;2.72;;;0.88;;
41512;SDS011;27244;59.940;30.280;2023-04-07T14:13:53;4.93;;;1.00;;
41512;SDS011;27244;59.940;30.280;2023-04-07T14:16:20;2.58;;;0.93;;
41512;SDS011;27244;59.940;30.280;2023-04-07T14:18:47;2.15;;;1.02;;
41512;SDS011;27244;59.940;30.280;2023-04-07T14:21:15;2.35;;;1.00;;
41512;SDS011;27244;59.940;30.280;2023-04-07T14:23:42;2.80;;;1.40;;
41512;SDS011;27244;59.940;30.280;2023-04-07T14:26:11;2.50;;;0.90;;
41512;SDS011;27244;59.940;30.280;2023-04-07T14:28:38;3.72;;;1.20;;
41512;SDS011;27244;59.940;30.280;2023-04-07T14:31:05;2.70;;;1.10;;
41512;SDS011;27244;59.940;30.280;2023-04-07T14:36:04;6.43;;;1.30;;
41512;SDS011;27244;59.940;30.280;2023-04-07T14:38:31;2.95;;;1.10;;
41512;SDS011;27244;59.940;30.280;2023-04-07T14:40:58;2.88;;;1.00;;
41512;SDS011;27244;59.940;30.280;2023-04-07T14:43:26;3.75;;;0.88;;
41512;SDS011;27244;59.940;30.280;2023-04-07T14:45:53;5.35;;;0.90;;
41512;SDS011;27244;59.940;30.280;2023-04-07T14:48:21;2.30;;;0.93;;
41512;SDS011;27244;59.940;30.280;2023-04-07T14:50:48;1.95;;;0.80;;
41512;SDS011;27244;59.940;30.280;2023-04-07T14:53:15;2.67;;;0.88;;
41512;SDS011;27244;59.940;30.280;2023-04-07T14:55:42;4.03;;;1.10;;
41512;SDS011;27244;59.940;30.280;2023-04-07T14:58:09;4.43;;;1.05;;
41512;SDS011;27244;59.940;30.280;2023-04-07T15:00:38;2.05;;;0.88;;